Time;durP1;ratioP1;P1;durP2;ratioP2;P2;SDS_P1;SDS_P2;PMS_P1;PMS_P2;Temp;Humidity;BMP_temperature;BMP_pressure;BME280_temperature;BME280_humidity;BME280_pressure;Samples;Min_cycle;Max_cycle;Signal;HPM_P1;HPM_P2
2023/03/10 00:00:32;;;;;;;1.53;1.50;;;7.90;91.50;;;;;;5094892;28;20633;-74
2023/03/10 00:02:58;;;;;;;2.40;1.53;;;7.90;91.50;;;;;;5094567;28;20208;-85
2023/03/10 00:05:24;;;;;;;1.87;1.77;;;7.90;91.50;;;;;;5094616;28;20591;-79
2023/03/10 00:07:50;;;;;;;3.43;1.70;;;7.90;91.60;;;;;;5094417;28;20266;-82
2023/03/10 00:10:16;;;;;;;1.80;1.70;;;7.90;91.60;;;;;;5076010;28;20267;-85
2023/03/10 00:12:42;;;;;;;1.30;1.30;;;8.00;91.70;;;;;;5096644;28;20203;-83
2023/03/10 00:15:09;;;;;;;1.27;1.27;;;8.00;91.50;;;;;;5104190;28;20170;-84
2023/03/10 00:17:36;;;;;;;1.60;1.50;;;8.00;91.60;;;;;;5094271;28;20181;-84
2023/03/10 00:20:06;;;;;;;1.90;1.80;;;8.00;91.50;;;;;;5093940;28;20516;-88
2023/03/10 00:22:33;;;;;;;1.97;1.83;;;8.00;91.50;;;;;;5097278;28;20249;-80
2023/03/10 00:24:59;;;;;;;1.90;1.80;;;8.00;91.50;;;;;;5097949;28;20732;-88
2023/03/10 00:27:25;;;;;;;2.30;2.10;;;8.00;91.60;;;;;;5095640;28;20301;-88
2023/03/10 00:29:51;;;;;;;2.17;2.00;;;8.00;91.80;;;;;;5096301;28;20171;-86
2023/03/10 00:32:17;;;;;;;2.47;1.70;;;8.10;91.70;;;;;;5081365;28;20496;-78
2023/03/10 00:34:42;;;;;;;2.30;2.10;;;7.90;91.70;;;;;;5083529;28;20529;-76
2023/03/10 00:37:08;;;;;;;2.10;2.00;;;7.90;91.90;;;;;;5099053;28;20175;-79
2023/03/10 00:39:34;;;;;;;2.40;2.10;;;8.00;91.90;;;;;;5103917;28;20171;-73
2023/03/10 00:42:00;;;;;;;1.97;1.87;;;7.90;91.90;;;;;;5096634;28;20170;-76
2023/03/10 00:44:27;;;;;;;2.00;1.90;;;7.80;91.90;;;;;;5097638;28;20312;-78
2023/03/10 00:46:56;;;;;;;2.07;1.63;;;7.80;91.80;;;;;;5101722;28;20187;-76
2023/03/10 00:49:21;;;;;;;2.60;1.70;;;7.80;91.80;;;;;;5110906;28;20174;-85
2023/03/10 00:51:47;;;;;;;1.87;1.77;;;7.80;91.80;;;;;;5098860;28;20250;-79
2023/03/10 00:54:13;;;;;;;1.67;1.57;;;7.80;91.90;;;;;;5096465;28;20223;-80
2023/03/10 00:56:39;;;;;;;2.30;1.67;;;7.90;91.80;;;;;;5099487;28;20184;-78
2023/03/10 00:59:05;;;;;;;1.53;1.43;;;7.90;91.90;;;;;;5077789;28;20520;-79
2023/03/10 01:01:36;;;;;;;1.90;1.80;;;7.90;91.90;;;;;;5095815;28;20674;-82
2023/03/10 01:04:17;;;;;;;1.80;1.70;;;7.90;92.00;;;;;;5095841;28;20158;-79
2023/03/10 01:06:46;;;;;;;1.77;1.63;;;7.80;91.90;;;;;;5096826;28;20175;-83
2023/03/10 01:09:12;;;;;;;1.90;1.70;;;7.80;91.90;;;;;;5097576;28;20169;-85
2023/03/10 01:11:38;;;;;;;2.13;1.93;;;7.70;92.00;;;;;;5097606;28;20180;-82
2023/03/10 01:14:06;;;;;;;1.60;1.50;;;7.80;92.00;;;;;;5096193;28;20173;-79
2023/03/10 01:16:32;;;;;;;1.40;1.40;;;7.80;92.00;;;;;;5096245;28;20189;-75
2023/03/10 01:18:58;;;;;;;1.53;1.50;;;7.70;92.10;;;;;;5095913;28;20174;-72
2023/03/10 01:21:30;;;;;;;1.50;1.30;;;7.80;92.00;;;;;;5095730;28;20231;-78
2023/03/10 01:23:56;;;;;;;4.00;1.80;;;7.80;92.10;;;;;;5095961;28;20215;-78
2023/03/10 01:26:22;;;;;;;1.67;1.60;;;7.80;92.00;;;;;;5077662;28;20170;-77
2023/03/10 01:28:48;;;;;;;1.90;1.77;;;7.70;92.10;;;;;;5096302;28;20595;-79
2023/03/10 01:31:15;;;;;;;2.73;1.67;;;7.70;92.10;;;;;;5098319;28;20186;-76
2023/03/10 01:33:41;;;;;;;1.77;1.67;;;7.60;92.20;;;;;;5110714;28;20249;-82
2023/03/10 01:36:14;;;;;;;2.33;1.83;;;7.60;92.30;;;;;;5084961;28;20181;-88
2023/03/10 01:38:41;;;;;;;1.87;1.77;;;7.60;92.30;;;;;;5097170;28;20506;-82
2023/03/10 01:41:07;;;;;;;1.80;1.70;;;7.50;92.40;;;;;;5108575;28;20171;-77
2023/03/10 01:43:42;;;;;;;2.30;1.90;;;7.30;92.60;;;;;;5104356;28;20225;-90
2023/03/10 01:46:32;;;;;;;1.83;1.73;;;7.20;92.80;;;;;;5098467;28;20201;-83
2023/03/10 01:49:06;;;;;;;2.20;2.07;;;7.10;92.90;;;;;;5096218;28;20231;-83
2023/03/10 01:51:34;;;;;;;2.30;2.10;;;7.20;92.80;;;;;;5077226;28;20173;-76
2023/03/10 01:54:02;;;;;;;3.43;1.87;;;7.30;92.90;;;;;;5094811;28;20174;-77
2023/03/10 01:56:29;;;;;;;2.17;2.07;;;7.40;92.80;;;;;;5095801;28;20169;-79
2023/03/10 01:58:55;;;;;;;2.53;2.33;;;7.40;92.90;;;;;;5096584;28;20187;-81
2023/03/10 02:01:20;;;;;;;3.00;2.10;;;7.30;92.90;;;;;;5096076;28;20185;-81
2023/03/10 02:03:55;;;;;;;2.70;2.23;;;7.20;93.00;;;;;;5100875;28;20222;-85
2023/03/10 02:06:24;;;;;;;2.30;2.10;;;7.20;93.00;;;;;;5100287;28;20670;-84
2023/03/10 02:08:53;;;;;;;1.93;1.83;;;7.20;93.00;;;;;;5099447;28;20176;-85
2023/03/10 02:11:20;;;;;;;2.23;2.03;;;7.20;93.10;;;;;;5104029;28;20262;-83
2023/03/10 02:13:45;;;;;;;2.10;1.87;;;7.20;93.00;;;;;;5077631;28;20858;-84
2023/03/10 02:16:12;;;;;;;2.80;2.20;;;7.20;92.90;;;;;;5095667;28;20261;-89
2023/03/10 02:18:39;;;;;;;2.47;2.20;;;7.10;92.90;;;;;;5096020;28;20203;-82
2023/03/10 02:21:11;;;;;;;2.27;2.17;;;7.20;92.90;;;;;;5096922;28;20573;-81
2023/03/10 02:23:55;;;;;;;3.53;2.17;;;7.20;93.10;;;;;;5100385;28;20181;-75
2023/03/10 02:26:47;;;;;;;2.40;1.90;;;7.10;93.20;;;;;;5086564;28;20218;-83
2023/03/10 02:29:48;;;;;;;2.47;2.00;;;7.10;93.20;;;;;;5076957;28;20249;-87
2023/03/10 02:32:15;;;;;;;2.93;2.23;;;7.00;93.20;;;;;;5003349;28;20188;-85
2023/03/10 02:34:41;;;;;;;3.50;2.40;;;6.90;93.40;;;;;;5075688;28;20253;-83
2023/03/10 02:37:16;;;;;;;3.63;2.63;;;6.80;93.60;;;;;;5075943;28;20200;-86
2023/03/10 02:39:42;;;;;;;7.03;4.37;;;6.70;94.00;;;;;;5077181;28;20164;-89
2023/03/10 02:42:10;;;;;;;6.07;4.20;;;6.70;94.10;;;;;;5078488;28;20647;-89
2023/03/10 02:44:37;;;;;;;5.70;4.00;;;6.60;94.10;;;;;;5087346;28;20222;-78
2023/03/10 02:47:03;;;;;;;5.77;4.07;;;6.60;94.30;;;;;;5089404;28;20181;-76
2023/03/10 02:49:29;;;;;;;5.27;4.23;;;6.50;94.30;;;;;;5079392;28;20188;-88
2023/03/10 02:51:55;;;;;;;5.13;4.20;;;6.50;94.40;;;;;;5075778;28;20177;-87
2023/03/10 02:54:21;;;;;;;5.13;3.80;;;6.40;94.40;;;;;;5075942;28;20172;-89
2023/03/10 02:56:47;;;;;;;4.00;3.23;;;6.40;94.50;;;;;;5076079;28;20782;-88
2023/03/10 02:59:13;;;;;;;6.70;4.20;;;6.30;94.70;;;;;;5075441;28;20267;-90
2023/03/10 03:01:39;;;;;;;4.13;3.63;;;6.20;94.70;;;;;;5074711;28;20168;-81
2023/03/10 03:04:05;;;;;;;4.57;3.83;;;6.20;94.80;;;;;;5073591;28;20194;-76
2023/03/10 03:06:31;;;;;;;6.00;3.67;;;6.10;94.90;;;;;;5073147;28;20202;-81
2023/03/10 03:08:57;;;;;;;3.87;3.30;;;6.10;95.00;;;;;;5078313;28;20171;-78
2023/03/10 03:11:22;;;;;;;3.57;3.17;;;6.10;94.90;;;;;;5077442;28;20249;-80
2023/03/10 03:13:48;;;;;;;4.33;3.30;;;6.00;95.00;;;;;;5074555;28;20200;-75
2023/03/10 03:16:14;;;;;;;3.97;3.60;;;6.00;95.00;;;;;;5073039;28;20652;-85
2023/03/10 03:18:40;;;;;;;4.70;3.40;;;5.90;95.10;;;;;;5073582;28;20225;-81
2023/03/10 03:21:11;;;;;;;3.70;3.40;;;5.90;95.10;;;;;;5073148;28;20181;-79
2023/03/10 03:23:38;;;;;;;6.13;3.80;;;6.00;95.10;;;;;;5073207;28;20195;-81
2023/03/10 03:26:04;;;;;;;5.17;3.37;;;5.90;95.30;;;;;;5073349;28;20260;-80
2023/03/10 03:28:30;;;;;;;3.80;3.50;;;5.80;95.50;;;;;;5055119;28;20261;-76
2023/03/10 03:30:56;;;;;;;7.77;3.90;;;5.80;95.40;;;;;;5080921;28;20541;-76
2023/03/10 03:33:22;;;;;;;5.03;3.73;;;5.80;95.50;;;;;;5076992;28;20175;-77
2023/03/10 03:35:48;;;;;;;4.93;3.67;;;5.80;95.60;;;;;;5073610;28;20179;-78
2023/03/10 03:38:14;;;;;;;4.27;3.50;;;5.80;95.60;;;;;;5073064;28;20175;-79
2023/03/10 03:40:40;;;;;;;7.90;3.47;;;5.90;95.50;;;;;;5072911;28;20658;-76
2023/03/10 03:43:05;;;;;;;4.80;3.73;;;5.80;95.70;;;;;;5059130;28;20227;-81
2023/03/10 03:45:32;;;;;;;6.67;4.17;;;5.80;95.70;;;;;;5093398;28;20215;-82
2023/03/10 03:47:58;;;;;;;5.67;3.80;;;5.80;95.70;;;;;;5093840;28;20243;-86
2023/03/10 03:50:24;;;;;;;3.50;3.23;;;5.70;95.70;;;;;;5095451;28;20172;-77
2023/03/10 03:52:50;;;;;;;4.73;3.53;;;5.60;95.90;;;;;;5097453;28;20592;-82
2023/03/10 03:55:17;;;;;;;3.17;2.80;;;5.70;95.70;;;;;;5095090;28;20169;-82
2023/03/10 03:57:46;;;;;;;3.70;2.20;;;5.70;95.50;;;;;;5097984;28;20177;-72
2023/03/10 04:00:17;;;;;;;2.33;2.13;;;5.60;95.70;;;;;;5127710;28;20300;-73
2023/03/10 04:02:43;;;;;;;2.53;1.93;;;5.50;95.70;;;;;;5121706;28;20162;-75
2023/03/10 04:05:09;;;;;;;3.40;2.07;;;5.40;95.80;;;;;;5124788;28;20195;-72
2023/03/10 04:07:36;;;;;;;2.20;2.10;;;5.20;96.00;;;;;;5115417;28;20179;-80
2023/03/10 04:10:02;;;;;;;2.47;2.27;;;5.20;96.10;;;;;;5114187;28;20654;-84
2023/03/10 04:12:28;;;;;;;1.97;1.87;;;5.20;96.20;;;;;;5112455;28;20169;-84
2023/03/10 04:14:54;;;;;;;3.03;1.87;;;5.00;96.30;;;;;;5112586;28;20566;-78
2023/03/10 04:17:19;;;;;;;1.73;1.63;;;5.00;96.40;;;;;;5115688;28;20165;-85
2023/03/10 04:19:45;;;;;;;2.83;2.20;;;4.90;96.40;;;;;;5118292;28;20191;-89
2023/03/10 04:22:11;;;;;;;2.07;1.97;;;5.00;96.50;;;;;;5117922;28;20239;-84
2023/03/10 04:24:38;;;;;;;1.87;1.77;;;5.00;96.60;;;;;;5117525;28;20736;-83
2023/03/10 04:27:04;;;;;;;4.43;2.20;;;5.00;96.60;;;;;;5118277;28;20249;-81
2023/03/10 04:29:30;;;;;;;3.73;2.20;;;5.00;96.50;;;;;;5118724;28;20161;-83
2023/03/10 04:31:56;;;;;;;2.83;2.10;;;4.90;96.80;;;;;;5117645;28;20242;-83
2023/03/10 04:34:21;;;;;;;3.73;2.43;;;4.90;96.80;;;;;;5117707;28;20185;-75
2023/03/10 04:36:47;;;;;;;2.07;1.97;;;5.20;96.60;;;;;;5118344;28;20254;-77
2023/03/10 04:39:14;;;;;;;1.77;1.67;;;5.20;96.60;;;;;;5118672;28;20181;-76
2023/03/10 04:41:39;;;;;;;2.03;1.87;;;5.10;96.60;;;;;;5118904;28;20254;-84
2023/03/10 04:44:05;;;;;;;2.10;1.90;;;5.20;96.70;;;;;;5107091;28;20257;-76
2023/03/10 04:46:31;;;;;;;2.20;2.10;;;5.20;96.70;;;;;;5100456;28;20622;-80
2023/03/10 04:48:57;;;;;;;2.27;1.80;;;5.20;96.80;;;;;;5106459;28;20188;-76
2023/03/10 04:51:23;;;;;;;2.03;1.93;;;5.20;96.80;;;;;;5103714;28;20178;-71
2023/03/10 04:53:49;;;;;;;3.07;2.13;;;5.20;96.80;;;;;;5099783;28;20274;-78
2023/03/10 04:56:15;;;;;;;3.40;2.30;;;5.20;96.80;;;;;;5097081;28;20249;-73
2023/03/10 04:58:41;;;;;;;2.70;1.70;;;5.20;96.90;;;;;;5099447;28;20195;-79
2023/03/10 05:01:08;;;;;;;2.17;1.97;;;5.30;96.80;;;;;;5102185;28;20253;-74
2023/03/10 05:03:34;;;;;;;3.20;2.20;;;5.30;96.80;;;;;;5102266;28;20179;-74
2023/03/10 05:06:00;;;;;;;2.67;2.37;;;5.20;96.90;;;;;;5102470;28;20558;-78
2023/03/10 05:08:26;;;;;;;2.47;2.00;;;5.30;96.80;;;;;;5100106;28;20179;-78
2023/03/10 05:10:51;;;;;;;2.23;1.90;;;5.30;96.90;;;;;;5096228;28;20630;-76
2023/03/10 05:13:17;;;;;;;2.10;2.00;;;5.30;96.90;;;;;;5095824;28;20174;-76
2023/03/10 05:15:43;;;;;;;2.07;1.97;;;5.30;96.70;;;;;;5096102;28;20254;-76
2023/03/10 05:18:10;;;;;;;1.70;1.60;;;5.20;96.80;;;;;;5101886;28;20175;-75
2023/03/10 05:20:36;;;;;;;2.40;2.00;;;5.20;96.90;;;;;;5106871;28;20191;-86
2023/03/10 05:23:02;;;;;;;5.20;1.90;;;5.10;97.00;;;;;;5097092;28;20178;-79
2023/03/10 05:25:28;;;;;;;2.27;2.07;;;5.10;97.00;;;;;;5096186;28;20203;-72
2023/03/10 05:27:54;;;;;;;2.17;1.80;;;5.10;97.00;;;;;;5096052;28;20642;-74
2023/03/10 05:30:20;;;;;;;1.93;1.60;;;5.20;96.90;;;;;;5078589;28;20258;-80
2023/03/10 05:32:46;;;;;;;2.80;2.13;;;5.30;96.70;;;;;;5097633;28;20696;-77
2023/03/10 05:35:12;;;;;;;3.37;2.40;;;5.40;96.70;;;;;;5108069;28;20167;-71
2023/03/10 05:37:39;;;;;;;2.40;2.20;;;5.30;96.80;;;;;;5091938;28;20183;-75
2023/03/10 05:40:23;;;;;;;4.77;2.50;;;5.30;96.80;;;;;;5076988;28;20260;-77
2023/03/10 05:42:50;;;;;;;3.30;2.20;;;5.30;96.80;;;;;;5076571;28;20221;-81
2023/03/10 05:45:17;;;;;;;1.90;1.70;;;5.20;97.10;;;;;;5082069;28;20206;-74
2023/03/10 05:47:45;;;;;;;2.37;2.17;;;5.20;97.00;;;;;;5085764;28;20172;-88
2023/03/10 05:50:13;;;;;;;2.70;1.87;;;5.30;96.80;;;;;;5076869;28;20179;-89
2023/03/10 05:52:40;;;;;;;2.03;1.93;;;5.30;96.90;;;;;;5075781;28;20499;-88
2023/03/10 05:55:10;;;;;;;6.43;2.90;;;5.30;96.90;;;;;;5075814;28;20171;-88
2023/03/10 05:57:36;;;;;;;3.33;2.57;;;5.40;96.90;;;;;;5059334;28;20198;-89
2023/03/10 06:00:03;;;;;;;2.63;2.43;;;5.40;96.90;;;;;;5081952;28;20583;-76
2023/03/10 06:02:29;;;;;;;3.03;2.53;;;5.50;96.90;;;;;;5080460;28;20175;-88
2023/03/10 06:04:54;;;;;;;3.17;2.87;;;5.50;96.80;;;;;;5075522;28;20215;-90
2023/03/10 06:07:20;;;;;;;3.67;2.73;;;5.60;96.80;;;;;;5075770;28;20177;-85
2023/03/10 06:09:46;;;;;;;5.50;3.63;;;5.60;96.70;;;;;;5073933;28;20200;-72
2023/03/10 06:12:12;;;;;;;2.90;2.33;;;5.70;96.70;;;;;;5073601;28;20194;-71
2023/03/10 06:14:37;;;;;;;2.37;2.27;;;5.80;96.60;;;;;;5074345;28;20632;-79
2023/03/10 06:17:03;;;;;;;2.80;2.40;;;5.80;96.60;;;;;;5076342;28;20171;-76
2023/03/10 06:19:29;;;;;;;2.20;2.10;;;5.80;96.60;;;;;;5058133;28;20176;-86
2023/03/10 06:21:55;;;;;;;2.30;2.10;;;5.80;96.70;;;;;;5074509;28;20183;-81
2023/03/10 06:24:21;;;;;;;3.10;2.77;;;5.80;96.60;;;;;;5076049;28;20299;-73
2023/03/10 06:26:47;;;;;;;2.60;2.40;;;5.90;96.70;;;;;;5064460;28;20180;-85
2023/03/10 06:29:12;;;;;;;3.23;2.93;;;5.90;96.80;;;;;;5068184;28;20190;-79
2023/03/10 06:31:38;;;;;;;2.93;2.70;;;6.00;96.70;;;;;;5058977;28;20176;-88
2023/03/10 06:34:04;;;;;;;2.30;2.10;;;6.10;96.60;;;;;;5076296;28;20233;-87
2023/03/10 06:36:32;;;;;;;2.77;2.57;;;6.20;96.60;;;;;;5074178;28;20171;-81
2023/03/10 06:38:58;;;;;;;2.20;2.10;;;6.30;96.50;;;;;;5074243;28;20291;-82
2023/03/10 06:41:24;;;;;;;2.97;2.43;;;6.40;96.50;;;;;;5074442;28;20198;-77
2023/03/10 06:43:50;;;;;;;3.20;2.67;;;6.40;96.30;;;;;;5074759;28;20237;-78
2023/03/10 06:46:16;;;;;;;3.23;2.67;;;6.60;96.30;;;;;;5074302;28;20876;-81
2023/03/10 06:48:43;;;;;;;2.73;2.53;;;6.80;96.10;;;;;;5076251;28;20523;-85
2023/03/10 06:51:12;;;;;;;2.70;2.50;;;6.80;96.00;;;;;;5079759;28;20190;-87
2023/03/10 06:53:37;;;;;;;2.57;2.37;;;7.00;95.90;;;;;;5082392;28;20192;-83
2023/03/10 06:56:21;;;;;;;3.60;2.77;;;7.10;95.80;;;;;;5085483;28;20176;-73
2023/03/10 06:58:47;;;;;;;2.83;2.50;;;7.30;95.70;;;;;;5075764;28;20171;-81
2023/03/10 07:01:20;;;;;;;2.43;2.23;;;7.30;95.50;;;;;;5074088;28;20189;-78
2023/03/10 07:03:46;;;;;;;3.03;2.57;;;7.40;95.60;;;;;;5055552;28;20180;-74
2023/03/10 07:06:11;;;;;;;4.70;2.33;;;7.40;95.50;;;;;;5073295;28;20201;-76
2023/03/10 07:08:37;;;;;;;4.17;2.30;;;7.50;95.40;;;;;;5073671;28;20181;-75
2023/03/10 07:11:03;;;;;;;3.27;2.40;;;7.50;95.40;;;;;;5075096;28;20178;-79
2023/03/10 07:13:28;;;;;;;3.00;2.30;;;7.60;95.40;;;;;;5063559;28;20184;-73
2023/03/10 07:15:55;;;;;;;2.50;2.30;;;7.70;95.20;;;;;;5074952;28;20170;-76
2023/03/10 07:18:21;;;;;;;2.47;2.20;;;7.80;95.00;;;;;;5073217;28;20177;-83
2023/03/10 07:20:47;;;;;;;2.93;2.67;;;7.70;95.10;;;;;;5073428;28;20178;-85
2023/03/10 07:23:13;;;;;;;3.77;2.43;;;7.80;95.30;;;;;;5074630;28;20228;-77
2023/03/10 07:25:39;;;;;;;3.50;2.47;;;8.00;97.00;;;;;;5073617;28;20203;-80
2023/03/10 07:28:06;;;;;;;4.53;4.10;;;8.10;95.00;;;;;;5073937;28;20172;-80
2023/03/10 07:30:33;;;;;;;4.13;3.40;;;8.20;94.70;;;;;;5074905;28;20249;-84
2023/03/10 07:32:59;;;;;;;2.50;2.30;;;8.10;94.80;;;;;;5061876;28;20185;-83
2023/03/10 07:35:25;;;;;;;2.53;2.33;;;8.10;94.90;;;;;;5075217;28;20182;-82
2023/03/10 07:37:51;;;;;;;4.53;2.70;;;8.10;95.10;;;;;;5073890;28;20174;-81
2023/03/10 07:40:16;;;;;;;6.17;2.60;;;8.10;95.40;;;;;;5073521;28;20524;-80
2023/03/10 07:42:43;;;;;;;3.17;2.47;;;8.20;95.40;;;;;;5073644;28;20167;-76
2023/03/10 07:45:10;;;;;;;3.43;2.50;;;8.30;96.80;;;;;;5075172;28;20202;-75
2023/03/10 07:47:36;;;;;;;3.83;2.67;;;8.40;95.20;;;;;;5075434;28;20203;-84
2023/03/10 07:50:01;;;;;;;2.93;2.60;;;8.50;95.00;;;;;;5074604;28;20579;-78
2023/03/10 07:52:28;;;;;;;5.43;2.60;;;8.50;95.20;;;;;;5074358;28;20227;-81
2023/03/10 07:54:54;;;;;;;3.40;2.70;;;8.60;95.80;;;;;;5076017;28;20538;-82
2023/03/10 07:57:20;;;;;;;2.67;2.40;;;8.70;95.20;;;;;;5075406;28;20215;-79
2023/03/10 07:59:46;;;;;;;2.93;2.23;;;8.80;95.30;;;;;;5076193;28;20642;-72
2023/03/10 08:02:13;;;;;;;5.07;2.87;;;8.80;94.90;;;;;;5074917;28;20261;-75
2023/03/10 08:04:40;;;;;;;2.90;2.70;;;8.90;94.90;;;;;;5073866;28;20694;-74
2023/03/10 08:07:06;;;;;;;4.23;2.90;;;8.90;94.70;;;;;;5072905;28;20497;-76
2023/03/10 08:09:32;;;;;;;2.87;2.67;;;9.00;95.10;;;;;;5072487;28;20178;-78
2023/03/10 08:12:01;;;;;;;4.67;3.03;;;9.20;95.00;;;;;;5072544;28;20168;-78
2023/03/10 08:14:29;;;;;;;7.17;2.83;;;9.20;94.50;;;;;;5054097;28;20175;-74
2023/03/10 08:16:55;;;;;;;4.63;2.63;;;9.30;94.20;;;;;;5072257;28;20691;-80
2023/03/10 08:19:25;;;;;;;2.60;2.40;;;9.30;94.10;;;;;;5072734;28;20244;-75
2023/03/10 08:21:54;;;;;;;2.60;2.43;;;9.30;94.10;;;;;;5073364;28;20201;-80
2023/03/10 08:24:20;;;;;;;3.53;2.97;;;9.50;94.20;;;;;;5076648;28;20275;-74
2023/03/10 08:26:46;;;;;;;5.47;3.00;;;9.60;94.20;;;;;;5073625;28;20214;-73
2023/03/10 08:29:11;;;;;;;4.37;3.17;;;9.70;94.10;;;;;;5072250;28;20199;-76
2023/03/10 08:31:37;;;;;;;3.73;2.60;;;9.70;94.20;;;;;;5072140;28;20686;-76
2023/03/10 08:34:03;;;;;;;4.57;2.90;;;9.80;94.10;;;;;;5072347;28;20557;-72
2023/03/10 08:36:30;;;;;;;3.17;2.87;;;9.90;94.10;;;;;;5072447;28;20512;-73
2023/03/10 08:38:57;;;;;;;4.33;3.07;;;10.00;93.50;;;;;;5072178;28;20652;-72
2023/03/10 08:41:35;;;;;;;3.10;2.83;;;10.10;93.50;;;;;;5071789;28;20647;-74
2023/03/10 08:44:02;;;;;;;7.37;3.23;;;10.20;93.60;;;;;;5073163;28;20302;-74
2023/03/10 08:46:30;;;;;;;3.37;2.60;;;10.30;93.70;;;;;;5092084;28;20189;-73
2023/03/10 08:48:57;;;;;;;5.03;3.03;;;10.40;93.70;;;;;;5096011;28;20174;-74
2023/03/10 08:51:24;;;;;;;5.47;3.03;;;10.60;93.70;;;;;;5096044;28;20175;-73
2023/03/10 08:53:50;;;;;;;5.37;3.60;;;10.80;93.50;;;;;;5094338;28;20599;-78
2023/03/10 08:56:19;;;;;;;5.07;3.47;;;11.00;93.80;;;;;;5094898;28;20170;-77
2023/03/10 08:58:44;;;;;;;6.80;2.80;;;11.10;93.60;;;;;;5098484;28;20181;-73
2023/03/10 09:01:13;;;;;;;5.90;3.20;;;11.20;93.80;;;;;;5102746;28;20167;-85
2023/03/10 09:03:41;;;;;;;5.77;3.00;;;11.30;93.90;;;;;;5103005;28;20259;-85
2023/03/10 09:06:07;;;;;;;5.93;3.60;;;11.50;93.80;;;;;;5097070;28;20208;-81
2023/03/10 09:08:33;;;;;;;3.37;3.17;;;11.70;93.70;;;;;;5097202;28;20175;-78
2023/03/10 09:11:00;;;;;;;4.90;3.40;;;11.80;93.70;;;;;;5096036;28;20174;-80
2023/03/10 09:13:26;;;;;;;6.67;3.93;;;11.90;93.70;;;;;;5096778;28;20224;-82
2023/03/10 09:15:52;;;;;;;3.70;3.30;;;12.00;93.80;;;;;;5096658;28;20239;-84
2023/03/10 09:18:18;;;;;;;3.90;2.73;;;12.00;93.80;;;;;;5095768;28;20168;-76
2023/03/10 09:20:45;;;;;;;3.30;2.90;;;12.10;94.00;;;;;;5097255;28;20190;-83
2023/03/10 09:23:12;;;;;;;3.77;2.63;;;12.20;94.40;;;;;;5096294;28;20250;-81
2023/03/10 09:25:41;;;;;;;5.73;3.23;;;12.30;94.40;;;;;;5095984;28;20315;-82
2023/03/10 09:28:10;;;;;;;5.07;3.00;;;12.50;94.00;;;;;;5095088;28;20174;-80
2023/03/10 09:30:39;;;;;;;5.07;3.43;;;12.60;94.20;;;;;;5097921;28;20898;-80
2023/03/10 09:33:07;;;;;;;6.50;3.13;;;12.70;94.20;;;;;;5098123;28;20174;-84
2023/03/10 09:35:33;;;;;;;4.17;3.43;;;12.90;94.20;;;;;;5096105;28;20223;-74
2023/03/10 09:37:59;;;;;;;5.17;3.37;;;13.00;94.40;;;;;;5095728;28;20173;-72
2023/03/10 09:40:25;;;;;;;6.87;3.23;;;13.10;94.40;;;;;;5095377;28;20574;-77
2023/03/10 09:43:02;;;;;;;18.43;4.00;;;13.20;94.40;;;;;;5094056;28;20182;-75
2023/03/10 09:45:51;;;;;;;9.03;3.93;;;13.30;94.50;;;;;;5082070;28;20218;-82
2023/03/10 09:49:03;;;;;;;7.33;3.57;;;13.40;94.50;;;;;;5077431;28;20227;-79
2023/03/10 09:51:29;;;;;;;7.53;3.10;;;13.50;94.50;;;;;;5077806;28;20179;-84
2023/03/10 09:54:00;;;;;;;6.33;3.57;;;13.60;94.70;;;;;;5075756;28;20171;-80
2023/03/10 09:56:31;;;;;;;4.07;3.10;;;13.60;95.00;;;;;;5075501;28;20708;-83
2023/03/10 09:59:12;;;;;;;4.37;2.87;;;13.60;95.20;;;;;;5075153;28;20159;-85
2023/03/10 10:01:44;;;;;;;4.73;2.90;;;13.60;95.00;;;;;;5075159;28;20217;-85
2023/03/10 10:04:11;;;;;;;5.13;3.17;;;13.60;94.90;;;;;;5075817;28;20171;-84
2023/03/10 10:06:41;;;;;;;6.43;3.20;;;13.40;95.10;;;;;;5077830;28;20171;-80
2023/03/10 10:09:16;;;;;;;5.50;3.20;;;13.40;95.20;;;;;;5074968;28;20615;-79
2023/03/10 10:11:42;;;;;;;3.60;2.93;;;13.30;95.20;;;;;;5074809;28;20173;-85
2023/03/10 10:14:26;;;;;;;2.90;2.60;;;13.30;95.30;;;;;;5074965;28;20175;-84
2023/03/10 10:17:01;;;;;;;5.33;3.40;;;13.30;95.00;;;;;;5074489;28;20167;-74
2023/03/10 10:19:27;;;;;;;2.93;2.73;;;13.40;95.00;;;;;;5073983;28;20562;-77
2023/03/10 10:22:01;;;;;;;3.13;2.73;;;13.30;95.10;;;;;;5074558;28;20253;-78
2023/03/10 10:24:27;;;;;;;3.80;3.10;;;13.10;95.40;;;;;;5075942;28;20243;-77
2023/03/10 10:26:53;;;;;;;4.03;3.10;;;13.10;95.70;;;;;;5066531;28;20679;-83
2023/03/10 10:29:22;;;;;;;6.73;3.07;;;13.10;95.60;;;;;;5061063;28;20175;-80
2023/03/10 10:32:08;;;;;;;4.17;2.73;;;13.10;95.70;;;;;;5079427;28;20335;-86
2023/03/10 10:34:37;;;;;;;3.43;3.03;;;13.20;95.70;;;;;;5078877;28;20270;-84
2023/03/10 10:37:18;;;;;;;6.00;3.17;;;13.20;96.00;;;;;;5080187;28;20695;-82
2023/03/10 10:39:48;;;;;;;6.23;3.00;;;13.30;95.90;;;;;;5077191;28;20155;-85
2023/03/10 10:42:25;;;;;;;6.27;3.20;;;13.30;96.10;;;;;;5074821;28;20537;-84
2023/03/10 10:44:56;;;;;;;4.67;2.77;;;13.30;96.40;;;;;;5075074;28;20300;-80
2023/03/10 10:47:31;;;;;;;7.67;2.87;;;13.40;96.30;;;;;;5074117;28;20155;-82
2023/03/10 10:50:16;;;;;;;6.60;3.10;;;13.50;96.50;;;;;;5073670;28;20219;-83
2023/03/10 10:52:45;;;;;;;7.33;2.80;;;13.60;96.40;;;;;;5081359;28;20193;-84
2023/03/10 10:55:33;;;;;;;3.47;2.70;;;13.70;96.20;;;;;;5078457;28;20171;-84
2023/03/10 10:58:05;;;;;;;2.93;2.40;;;13.90;96.40;;;;;;5075552;28;20650;-83
2023/03/10 11:00:38;;;;;;;4.13;2.57;;;14.10;95.90;;;;;;5075641;28;20564;-80
2023/03/10 11:03:29;;;;;;;5.40;2.50;;;14.30;95.50;;;;;;5079960;28;20165;-78
2023/03/10 11:05:56;;;;;;;2.90;2.60;;;14.50;95.50;;;;;;5081029;28;20199;-74
2023/03/10 11:08:36;;;;;;;3.90;2.43;;;14.60;95.30;;;;;;5081566;28;20181;-81
2023/03/10 11:11:22;;;;;;;3.90;2.33;;;14.60;95.40;;;;;;5075019;28;20518;-77
2023/03/10 11:13:59;;;;;;;3.50;2.80;;;14.70;95.40;;;;;;5073892;28;20175;-79
2023/03/10 11:16:30;;;;;;;4.40;2.60;;;14.70;95.40;;;;;;5073334;28;20177;-76
2023/03/10 11:19:16;;;;;;;4.63;2.30;;;14.70;95.40;;;;;;5073220;28;20163;-81
2023/03/10 11:21:47;;;;;;;7.13;3.07;;;14.80;95.40;;;;;;5073052;28;20259;-77
2023/03/10 11:24:25;;;;;;;7.97;2.90;;;14.70;95.60;;;;;;5076430;28;20612;-74
2023/03/10 11:27:00;;;;;;;6.90;2.83;;;14.70;95.60;;;;;;5072809;28;20191;-75
2023/03/10 11:29:32;;;;;;;3.53;2.80;;;14.70;95.70;;;;;;5072801;28;20515;-76
2023/03/10 11:32:22;;;;;;;3.70;2.43;;;14.60;95.60;;;;;;5072756;28;20171;-80
2023/03/10 11:34:50;;;;;;;4.47;2.67;;;14.50;95.80;;;;;;5072635;28;20161;-80
2023/03/10 11:37:41;;;;;;;5.73;2.60;;;14.60;95.90;;;;;;5072830;28;20185;-76
2023/03/10 11:40:23;;;;;;;2.97;2.70;;;14.60;95.80;;;;;;5072072;28;20165;-77
2023/03/10 11:42:57;;;;;;;4.03;2.47;;;14.60;95.60;;;;;;5055173;28;20234;-77
2023/03/10 11:45:26;;;;;;;3.73;2.37;;;14.60;95.80;;;;;;5077387;28;20204;-73
2023/03/10 11:48:08;;;;;;;3.40;2.40;;;14.50;95.30;;;;;;5075359;28;20304;-81
2023/03/10 11:50:48;;;;;;;5.03;2.30;;;14.50;95.00;;;;;;5072362;28;20241;-75
2023/03/10 11:53:25;;;;;;;4.33;2.90;;;14.70;94.90;;;;;;5072662;28;20504;-73
2023/03/10 11:55:54;;;;;;;4.13;2.90;;;14.90;94.90;;;;;;5072586;28;20179;-74
2023/03/10 11:58:56;;;;;;;4.07;2.57;;;15.10;94.80;;;;;;5072482;28;20230;-74
2023/03/10 12:01:37;;;;;;;6.40;2.87;;;15.40;94.80;;;;;;5049689;28;20230;-77
2023/03/10 12:04:10;;;;;;;6.93;2.57;;;15.60;94.20;;;;;;5084290;28;20167;-77
2023/03/10 12:06:47;;;;;;;3.30;2.60;;;15.80;94.00;;;;;;5075341;28;20183;-75
2023/03/10 12:09:45;;;;;;;4.33;2.80;;;16.00;93.90;;;;;;5071802;28;20153;-75
2023/03/10 12:12:19;;;;;;;2.30;2.10;;;16.20;94.00;;;;;;5071679;28;20213;-74
2023/03/10 12:14:46;;;;;;;3.73;2.30;;;16.20;93.20;;;;;;5071800;28;20189;-75
2023/03/10 12:17:14;;;;;;;3.07;2.13;;;16.30;93.00;;;;;;5071709;28;20174;-75
2023/03/10 12:20:15;;;;;;;4.90;2.40;;;16.30;93.10;;;;;;5071925;28;20643;-74
2023/03/10 12:22:51;;;;;;;3.10;2.00;;;16.40;92.70;;;;;;5072071;28;20170;-79
2023/03/10 12:25:31;;;;;;;2.20;2.07;;;16.50;92.90;;;;;;5072091;28;20194;-82
2023/03/10 12:28:15;;;;;;;2.73;2.33;;;16.50;92.80;;;;;;5071962;28;20262;-84
2023/03/10 12:31:02;;;;;;;3.03;2.30;;;16.60;92.30;;;;;;5053311;28;20197;-86
2023/03/10 12:33:32;;;;;;;2.90;2.10;;;16.70;92.30;;;;;;5071769;28;20157;-82
2023/03/10 12:36:32;;;;;;;6.23;2.50;;;16.60;92.30;;;;;;5071964;28;20235;-81
2023/03/10 12:39:39;;;;;;;7.13;2.33;;;16.60;92.40;;;;;;5074971;28;20196;-86
2023/03/10 12:42:33;;;;;;;2.80;1.67;;;16.60;92.10;;;;;;5075283;28;20264;-82
2023/03/10 12:45:14;;;;;;;2.87;2.10;;;16.60;92.40;;;;;;5077027;28;20230;-78
2023/03/10 12:48:11;;;;;;;2.40;2.20;;;16.60;92.30;;;;;;5077097;28;20275;-75
2023/03/10 12:51:01;;;;;;;2.37;1.80;;;16.60;92.40;;;;;;5075249;28;20163;-79
2023/03/10 12:53:31;;;;;;;3.07;2.30;;;16.90;92.30;;;;;;5075360;28;20167;-79
2023/03/10 12:56:12;;;;;;;4.33;2.03;;;17.00;92.30;;;;;;5075657;28;20663;-83
2023/03/10 12:59:04;;;;;;;2.53;2.30;;;17.10;92.10;;;;;;5075927;28;20596;-75
2023/03/10 13:01:46;;;;;;;5.57;2.50;;;17.10;91.70;;;;;;5031490;28;20662;-79
2023/03/10 13:04:19;;;;;;;2.53;2.43;;;17.20;91.50;;;;;;5076002;28;20159;-74
2023/03/10 13:06:47;;;;;;;2.23;1.90;;;17.20;91.00;;;;;;5074763;28;20160;-77